createdAt,value
2022-12-29T00:01:45.131Z,97211.69
2022-12-29T00:04:15.353Z,97210.00
2022-12-29T00:06:43.945Z,97203.44
2022-12-29T00:09:15.473Z,97198.50
2022-12-29T00:11:43.611Z,97197.09
2022-12-29T00:14:30.849Z,97204.16
2022-12-29T00:16:59.134Z,97200.25
2022-12-29T00:19:45.570Z,97196.81
2022-12-29T00:22:33.838Z,97191.72
2022-12-29T00:25:20.650Z,97185.59
2022-12-29T00:28:07.543Z,97181.19
2022-12-29T00:30:56.112Z,97189.00
2022-12-29T00:33:50.949Z,97194.22
2022-12-29T00:36:24.852Z,97199.16
2022-12-29T00:39:14.997Z,97194.22
2022-12-29T00:42:08.599Z,97194.47
2022-12-29T00:44:36.141Z,97202.50
2022-12-29T00:47:05.460Z,97195.78
2022-12-29T00:49:34.255Z,97194.38
2022-12-29T00:52:05.862Z,97199.75
2022-12-29T00:54:35.660Z,97187.59
2022-12-29T00:57:05.266Z,97191.50
2022-12-29T00:59:32.855Z,97181.19
2022-12-29T01:02:00.415Z,97180.75
2022-12-29T01:04:29.524Z,97182.38
2022-12-29T01:06:57.013Z,97175.00
2022-12-29T01:09:43.560Z,97164.69
2022-12-29T01:12:11.371Z,97163.34
2022-12-29T01:14:39.554Z,97152.75
2022-12-29T01:17:07.545Z,97153.78
2022-12-29T01:19:35.095Z,97160.53
2022-12-29T01:22:02.764Z,97157.75
2022-12-29T01:24:30.276Z,97157.00
2022-12-29T01:26:57.800Z,97149.66
2022-12-29T01:29:25.324Z,97157.44
2022-12-29T01:31:52.946Z,97156.19
2022-12-29T01:34:20.551Z,97157.94
2022-12-29T01:36:48.131Z,97165.44
2022-12-29T01:39:15.745Z,97162.03
2022-12-29T01:41:43.788Z,97168.50
2022-12-29T01:44:50.029Z,97161.56
2022-12-29T01:47:29.761Z,97159.47
2022-12-29T01:50:01.358Z,97161.13
2022-12-29T01:52:32.965Z,97157.25
2022-12-29T01:55:04.813Z,97142.16
2022-12-29T01:57:38.237Z,97154.16
2022-12-29T02:00:12.963Z,97135.38
2022-12-29T02:02:50.202Z,97141.44
2022-12-29T02:05:47.207Z,97143.19
2022-12-29T02:08:15.081Z,97140.91
2022-12-29T02:10:43.917Z,97132.72
2022-12-29T02:13:11.540Z,97135.28
2022-12-29T02:15:41.609Z,97130.94
2022-12-29T02:18:15.122Z,97131.88
2022-12-29T02:21:01.209Z,97134.03
2022-12-29T02:24:02.268Z,97129.09
2022-12-29T02:27:20.564Z,97124.69
2022-12-29T02:29:58.542Z,97112.00
2022-12-29T02:32:53.709Z,97116.50
2022-12-29T02:35:38.545Z,97107.38
2022-12-29T02:38:35.733Z,97108.19
2022-12-29T02:41:14.301Z,97103.56
2022-12-29T02:44:04.988Z,97098.63
2022-12-29T02:46:46.918Z,97094.16
2022-12-29T02:49:23.882Z,97090.53
2022-12-29T02:52:19.206Z,97094.00
2022-12-29T02:54:50.331Z,97092.53
2022-12-29T02:57:23.843Z,97087.00
2022-12-29T02:59:58.403Z,97098.84
2022-12-29T03:02:44.584Z,97099.44
2022-12-29T03:05:30.261Z,97116.59
2022-12-29T03:08:22.031Z,97114.97
2022-12-29T03:11:05.823Z,97115.19
2022-12-29T03:13:55.328Z,97110.41
2022-12-29T03:17:05.703Z,97112.41
2022-12-29T03:19:47.003Z,97110.41
2022-12-29T03:22:28.521Z,97107.59
2022-12-29T03:25:05.455Z,97112.06
2022-12-29T03:27:43.493Z,97118.03
2022-12-29T03:30:12.495Z,97106.41
2022-12-29T03:32:56.486Z,97101.13
2022-12-29T03:35:34.103Z,97099.44
2022-12-29T03:38:18.485Z,97099.50
2022-12-29T03:40:55.043Z,97093.28
2022-12-29T03:43:25.464Z,97084.75
2022-12-29T03:45:52.954Z,97088.63
2022-12-29T03:48:20.513Z,97079.88
2022-12-29T03:50:50.384Z,97089.44
2022-12-29T03:53:20.514Z,97078.84
2022-12-29T03:55:48.341Z,97076.81
2022-12-29T03:58:17.119Z,97074.75
2022-12-29T04:00:53.420Z,97074.34
2022-12-29T04:03:21.115Z,97063.13
2022-12-29T04:05:48.630Z,97064.34
2022-12-29T04:08:16.427Z,97062.44
2022-12-29T04:10:44.885Z,97060.91
2022-12-29T04:13:14.238Z,97058.41
2022-12-29T04:15:43.669Z,97059.00
2022-12-29T04:18:12.705Z,97055.84
2022-12-29T04:20:58.806Z,97059.88
2022-12-29T04:23:26.547Z,97062.44
2022-12-29T04:25:54.516Z,97048.16
2022-12-29T04:28:22.058Z,97040.38
2022-12-29T04:30:55.503Z,97040.94
2022-12-29T04:33:43.236Z,97036.22
2022-12-29T04:36:11.815Z,97047.41
2022-12-29T04:38:39.869Z,97050.88
2022-12-29T04:41:08.623Z,97050.22
2022-12-29T04:43:38.752Z,97045.94
2022-12-29T04:46:41.598Z,97047.56
2022-12-29T04:49:13.121Z,97059.31
2022-12-29T04:52:04.014Z,97052.69
2022-12-29T04:54:31.713Z,97043.38
2022-12-29T04:57:08.487Z,97044.78
2022-12-29T04:59:38.749Z,97050.88
2022-12-29T05:02:06.559Z,97047.78
2022-12-29T05:04:36.078Z,97046.78
2022-12-29T05:07:03.781Z,97062.03
2022-12-29T05:09:31.398Z,97067.44
2022-12-29T05:12:01.390Z,97058.13
2022-12-29T05:14:30.383Z,97059.31
2022-12-29T05:16:58.151Z,97055.88
2022-12-29T05:19:26.909Z,97069.63
2022-12-29T05:21:55.503Z,97066.72
2022-12-29T05:28:36.083Z,97059.94
2022-12-29T05:31:13.000Z,97062.13
2022-12-29T05:33:40.807Z,97057.50
2022-12-29T05:36:09.770Z,97065.34
2022-12-29T05:38:40.783Z,97050.22
2022-12-29T05:41:08.326Z,97061.66
2022-12-29T05:43:56.092Z,97059.47
2022-12-29T05:46:32.823Z,97057.72
2022-12-29T05:49:36.470Z,97062.44
2022-12-29T05:52:19.207Z,97055.75
2022-12-29T05:54:46.819Z,97063.94
2022-12-29T05:57:18.080Z,97064.53
2022-12-29T05:59:51.458Z,97060.38
2022-12-29T06:02:19.103Z,97063.25
2022-12-29T06:04:46.723Z,97063.72
2022-12-29T06:07:14.367Z,97068.00
2022-12-29T06:09:44.639Z,97061.66
2022-12-29T06:12:12.452Z,97074.59
2022-12-29T06:14:41.830Z,97080.00
2022-12-29T06:17:09.410Z,97085.31
2022-12-29T06:19:37.401Z,97081.03
2022-12-29T06:22:05.871Z,97089.81
2022-12-29T06:24:35.852Z,97086.38
2022-12-29T06:27:03.643Z,97080.00
2022-12-29T06:29:31.212Z,97074.34
2022-12-29T06:31:59.453Z,97081.28
2022-12-29T06:34:28.307Z,97081.97
2022-12-29T06:36:56.118Z,97085.91
2022-12-29T06:39:23.729Z,97093.72
2022-12-29T06:42:02.807Z,97073.41
2022-12-29T06:44:58.717Z,97078.28
2022-12-29T06:47:26.208Z,97082.41
2022-12-29T06:49:53.728Z,97075.38
2022-12-29T06:52:21.365Z,97078.94
2022-12-29T06:54:48.871Z,97082.38
2022-12-29T06:57:16.408Z,97064.38
2022-12-29T06:59:43.955Z,97073.22
2022-12-29T07:02:12.607Z,97061.81
2022-12-29T07:04:40.220Z,97064.78
2022-12-29T07:07:07.810Z,97059.22
2022-12-29T07:09:35.296Z,97063.94
2022-12-29T07:12:03.111Z,97059.09
2022-12-29T07:14:31.108Z,97064.75
2022-12-29T07:16:58.826Z,97058.44
2022-12-29T07:19:26.293Z,97051.41
2022-12-29T07:21:55.869Z,97057.53
2022-12-29T07:24:23.347Z,97053.94
2022-12-29T07:26:50.950Z,97044.28
2022-12-29T07:29:18.619Z,97057.63
2022-12-29T07:31:46.368Z,97072.44
2022-12-29T07:34:13.848Z,97078.56
2022-12-29T07:36:41.668Z,97083.78
2022-12-29T07:39:09.334Z,97072.41
2022-12-29T07:41:36.988Z,97073.19
2022-12-29T07:44:05.007Z,97053.13
2022-12-29T07:46:57.616Z,97055.22
2022-12-29T07:49:26.476Z,97060.63
2022-12-29T07:51:53.959Z,97063.97
2022-12-29T07:54:21.600Z,97065.81
2022-12-29T07:56:49.302Z,97071.44
2022-12-29T07:59:17.007Z,97068.28
2022-12-29T08:01:44.651Z,97067.34
2022-12-29T08:04:12.609Z,97069.16
2022-12-29T08:06:40.206Z,97071.78
2022-12-29T08:09:16.432Z,97073.09
2022-12-29T08:11:47.559Z,97084.84
2022-12-29T08:14:15.083Z,97084.59
2022-12-29T08:16:42.692Z,97086.34
2022-12-29T08:19:13.025Z,97081.78
2022-12-29T08:21:41.135Z,97096.09
2022-12-29T08:24:10.298Z,97088.41
2022-12-29T08:26:38.027Z,97086.91
2022-12-29T08:29:05.591Z,97088.06
2022-12-29T08:31:33.222Z,97096.59
2022-12-29T08:34:01.350Z,97101.94
2022-12-29T08:36:28.848Z,97104.34
2022-12-29T08:38:56.418Z,97091.44
2022-12-29T08:41:24.347Z,97099.41
2022-12-29T08:43:51.969Z,97101.59
2022-12-29T08:46:20.659Z,97098.59
2022-12-29T08:48:48.144Z,97094.09
2022-12-29T08:51:20.147Z,97092.34
2022-12-29T08:53:50.390Z,97097.31
2022-12-29T08:56:18.513Z,97083.09
2022-12-29T08:58:52.259Z,97076.88
2022-12-29T09:01:20.983Z,97087.88
2022-12-29T09:06:40.202Z,97087.06
2022-12-29T09:09:08.344Z,97076.09
2022-12-29T09:11:35.845Z,97072.38
2022-12-29T09:14:03.593Z,97080.81
2022-12-29T09:16:31.175Z,97084.97
2022-12-29T09:18:58.979Z,97085.09
2022-12-29T09:21:26.455Z,97085.44
2022-12-29T09:23:54.145Z,97084.66
2022-12-29T09:26:21.703Z,97081.41
2022-12-29T09:28:49.350Z,97091.22
2022-12-29T09:31:16.861Z,97077.69
2022-12-29T09:33:44.453Z,97076.09
2022-12-29T09:36:11.896Z,97083.59
2022-12-29T09:38:39.519Z,97088.22
2022-12-29T09:41:19.683Z,97077.59
2022-12-29T09:43:50.054Z,97077.13
2022-12-29T09:46:28.341Z,97079.78
2022-12-29T09:49:21.921Z,97079.66
2022-12-29T09:51:56.024Z,97079.66
2022-12-29T09:55:03.780Z,97085.19
2022-12-29T09:57:37.811Z,97089.38
2022-12-29T10:00:20.569Z,97091.44
2022-12-29T10:02:56.256Z,97091.56
2022-12-29T10:06:02.330Z,97080.72
2022-12-29T10:08:56.069Z,97081.66
2022-12-29T10:11:45.003Z,97092.94
2022-12-29T10:14:21.875Z,97095.38
2022-12-29T10:17:02.285Z,97092.03
2022-12-29T10:19:38.810Z,97090.06
2022-12-29T10:22:39.071Z,97087.28
2022-12-29T10:25:18.893Z,97080.94
2022-12-29T10:27:49.894Z,97076.88
2022-12-29T10:30:19.353Z,97069.97
2022-12-29T10:32:55.201Z,97067.53
2022-12-29T10:35:27.803Z,97067.19
2022-12-29T10:38:04.739Z,97060.16
2022-12-29T10:41:15.115Z,97068.59
2022-12-29T10:43:55.381Z,97066.06
2022-12-29T10:46:26.520Z,97065.47
2022-12-29T10:48:54.148Z,97060.75
2022-12-29T10:51:29.600Z,97066.84
2022-12-29T10:54:00.463Z,97060.28
2022-12-29T10:56:53.385Z,97052.66
2022-12-29T10:59:25.260Z,97045.00
2022-12-29T11:02:01.888Z,97043.03
2022-12-29T11:04:49.245Z,97042.34
2022-12-29T11:07:25.115Z,97048.91
2022-12-29T11:09:55.340Z,97043.81
2022-12-29T11:12:29.618Z,97062.66
2022-12-29T11:15:09.727Z,97056.25
2022-12-29T11:18:00.764Z,97057.56
2022-12-29T11:20:39.917Z,97051.31
2022-12-29T11:23:25.030Z,97059.50
2022-12-29T11:26:19.061Z,97047.94
2022-12-29T11:29:05.062Z,97044.25
2022-12-29T11:31:42.094Z,97045.56
2022-12-29T11:34:10.323Z,97051.16
2022-12-29T11:36:39.543Z,97038.09
2022-12-29T11:39:13.744Z,97050.44
2022-12-29T11:41:41.673Z,97040.28
2022-12-29T11:44:13.728Z,97042.75
2022-12-29T11:46:42.944Z,97041.16
2022-12-29T11:49:14.877Z,97040.50
2022-12-29T11:51:47.912Z,97038.16
2022-12-29T11:54:38.279Z,97046.00
2022-12-29T11:57:18.243Z,97048.06
2022-12-29T11:59:57.259Z,97050.19
2022-12-29T12:02:40.533Z,97046.84
2022-12-29T12:05:13.713Z,97048.22
2022-12-29T12:07:48.362Z,97043.72
2022-12-29T12:10:31.174Z,97046.16
2022-12-29T12:13:09.318Z,97044.88
2022-12-29T12:15:56.784Z,97046.00
2022-12-29T12:18:59.091Z,97055.34
2022-12-29T12:21:33.413Z,97046.00
2022-12-29T12:24:10.952Z,97036.81
2022-12-29T12:26:59.868Z,97042.00
2022-12-29T12:29:38.271Z,97039.81
2022-12-29T12:32:15.224Z,97035.53
2022-12-29T12:34:45.275Z,97033.34
2022-12-29T12:37:24.927Z,97034.88
2022-12-29T12:40:29.759Z,97038.09
2022-12-29T12:43:15.608Z,97036.19
2022-12-29T12:45:55.038Z,97026.59
2022-12-29T12:48:22.355Z,97032.16
2022-12-29T12:51:10.648Z,97034.25
2022-12-29T12:53:56.557Z,97026.16
2022-12-29T12:56:31.193Z,97018.78
2022-12-29T12:59:10.668Z,97021.59
2022-12-29T13:01:44.201Z,97023.56
2022-12-29T13:04:31.753Z,97015.84
2022-12-29T13:07:15.712Z,96998.59
2022-12-29T13:09:49.469Z,96997.59
2022-12-29T13:12:31.936Z,96996.34
2022-12-29T13:14:59.210Z,97002.81
2022-12-29T13:17:31.498Z,97017.28
2022-12-29T13:20:11.270Z,97010.88
2022-12-29T13:22:54.244Z,97003.97
2022-12-29T13:25:21.453Z,97007.44
2022-12-29T13:27:48.659Z,97009.56
2022-12-29T13:30:20.388Z,97018.38
2022-12-29T13:32:56.759Z,97022.09
2022-12-29T13:35:53.453Z,97003.91
2022-12-29T13:38:20.743Z,97015.69
2022-12-29T13:40:51.826Z,97015.69
2022-12-29T13:43:20.943Z,97015.94
2022-12-29T13:45:58.712Z,97019.88
2022-12-29T13:48:46.214Z,97022.50
2022-12-29T13:51:14.182Z,97024.03
2022-12-29T13:53:42.295Z,97027.97
2022-12-29T13:56:21.679Z,97025.78
2022-12-29T13:58:55.387Z,97028.69
2022-12-29T14:01:31.284Z,97021.19
2022-12-29T14:04:00.653Z,97026.47
2022-12-29T14:06:38.204Z,97033.91
2022-12-29T14:09:06.587Z,97029.06
2022-12-29T14:11:35.182Z,97018.91
2022-12-29T14:14:30.169Z,97032.78
2022-12-29T14:17:14.520Z,97038.00
2022-12-29T14:19:46.390Z,97045.00
2022-12-29T14:22:13.965Z,97038.59
2022-12-29T14:24:45.466Z,97051.34
2022-12-29T14:27:13.214Z,97055.63
2022-12-29T14:29:40.402Z,97043.06
2022-12-29T14:32:25.984Z,97048.41
2022-12-29T14:34:54.312Z,97057.63
2022-12-29T14:37:29.083Z,97053.09
2022-12-29T14:40:23.365Z,97042.31
2022-12-29T14:42:52.373Z,97047.00
2022-12-29T14:45:19.821Z,97059.34
2022-12-29T14:47:48.612Z,97062.16
2022-12-29T14:50:34.300Z,97059.41
2022-12-29T14:53:04.623Z,97055.13
2022-12-29T14:55:41.226Z,97054.75
2022-12-29T14:58:20.670Z,97055.78
2022-12-29T15:00:48.093Z,97057.72
2022-12-29T15:03:18.051Z,97061.56
2022-12-29T15:05:47.550Z,97074.34
2022-12-29T15:08:17.983Z,97072.47
2022-12-29T15:10:48.892Z,97064.97
2022-12-29T15:13:18.793Z,97055.34
2022-12-29T15:15:46.115Z,97065.94
2022-12-29T15:18:15.754Z,97079.31
2022-12-29T15:20:43.573Z,97081.75
2022-12-29T15:23:12.400Z,97073.91
2022-12-29T15:25:49.079Z,97075.78
2022-12-29T15:28:16.442Z,97071.16
2022-12-29T15:30:57.196Z,97066.69
2022-12-29T15:33:27.152Z,97066.47
2022-12-29T15:35:56.084Z,97069.50
2022-12-29T15:38:33.312Z,97082.09
2022-12-29T15:41:20.865Z,97078.28
2022-12-29T15:44:01.715Z,97078.22
2022-12-29T15:46:31.369Z,97086.09
2022-12-29T15:48:58.761Z,97086.09
2022-12-29T15:51:25.983Z,97089.22
2022-12-29T15:53:53.800Z,97109.13
2022-12-29T15:56:21.227Z,97113.38
2022-12-29T15:58:52.983Z,97118.69
2022-12-29T16:01:24.568Z,97129.25
2022-12-29T16:03:52.557Z,97132.28
2022-12-29T16:06:39.206Z,97130.34
2022-12-29T16:09:07.973Z,97134.63
2022-12-29T16:11:36.681Z,97148.16
2022-12-29T16:14:08.118Z,97153.56
2022-12-29T16:16:40.970Z,97147.91
2022-12-29T16:19:28.539Z,97147.22
2022-12-29T16:21:56.151Z,97151.63
2022-12-29T16:24:25.346Z,97159.59
2022-12-29T16:26:55.403Z,97159.09
2022-12-29T16:29:23.205Z,97164.31
2022-12-29T16:32:01.497Z,97164.44
2022-12-29T16:34:33.673Z,97154.28
2022-12-29T16:37:01.022Z,97160.13
2022-12-29T16:39:40.304Z,97170.16
2022-12-29T16:42:26.247Z,97165.53
2022-12-29T16:45:07.610Z,97182.97
2022-12-29T16:47:34.871Z,97179.03
2022-12-29T16:50:12.757Z,97188.75
2022-12-29T16:52:40.265Z,97179.63
2022-12-29T16:55:16.014Z,97181.03
2022-12-29T16:57:44.014Z,97187.97
2022-12-29T17:00:22.193Z,97180.47
2022-12-29T17:02:50.667Z,97180.38
2022-12-29T17:05:18.763Z,97179.34
2022-12-29T17:07:46.411Z,97187.44
2022-12-29T17:10:16.623Z,97170.91
2022-12-29T17:12:45.114Z,97173.44
2022-12-29T17:15:33.276Z,97184.66
2022-12-29T17:18:01.131Z,97194.00
2022-12-29T17:20:29.828Z,97191.81
2022-12-29T17:22:58.063Z,97177.47
2022-12-29T17:25:33.607Z,97180.13
2022-12-29T17:28:05.580Z,97182.91
2022-12-29T17:30:34.858Z,97182.78
2022-12-29T17:33:06.574Z,97190.88
2022-12-29T17:35:33.973Z,97186.00
2022-12-29T17:38:01.247Z,97180.69
2022-12-29T17:40:30.369Z,97195.81
2022-12-29T17:42:58.464Z,97188.41
2022-12-29T17:45:32.610Z,97196.19
2022-12-29T17:48:02.767Z,97191.31
2022-12-29T17:50:30.937Z,97181.81
2022-12-29T17:53:00.936Z,97190.38
2022-12-29T17:55:36.776Z,97190.84
2022-12-29T17:58:21.601Z,97185.19
2022-12-29T18:00:50.019Z,97198.13
2022-12-29T18:03:18.998Z,97191.22
2022-12-29T18:05:46.477Z,97201.50
2022-12-29T18:08:13.705Z,97196.53
2022-12-29T18:10:41.219Z,97196.88
2022-12-29T18:13:15.763Z,97197.59
2022-12-29T18:15:43.100Z,97194.50
2022-12-29T18:18:11.886Z,97193.81
2022-12-29T18:20:39.464Z,97202.66
2022-12-29T18:23:07.396Z,97203.47
2022-12-29T18:25:49.820Z,97206.09
2022-12-29T18:28:17.276Z,97195.59
2022-12-29T18:30:44.500Z,97206.44
2022-12-29T18:33:19.357Z,97213.03
2022-12-29T18:36:02.697Z,97216.38
2022-12-29T18:38:30.040Z,97221.91
2022-12-29T18:40:57.901Z,97214.03
2022-12-29T18:43:25.294Z,97212.88
2022-12-29T18:45:52.493Z,97207.78
2022-12-29T18:48:20.185Z,97203.53
2022-12-29T18:50:49.359Z,97199.72
2022-12-29T18:53:17.574Z,97209.13
2022-12-29T18:55:44.814Z,97208.59
2022-12-29T18:58:15.095Z,97198.06
2022-12-29T19:00:42.638Z,97199.56
2022-12-29T19:03:14.264Z,97197.22
2022-12-29T19:05:42.721Z,97201.38
2022-12-29T19:08:10.613Z,97205.75
2022-12-29T19:10:38.074Z,97218.44
2022-12-29T19:13:05.871Z,97209.00
2022-12-29T19:15:35.576Z,97201.63
2022-12-29T19:20:52.191Z,97203.69
2022-12-29T19:23:20.705Z,97202.44
2022-12-29T19:25:48.321Z,97195.41
2022-12-29T19:28:17.536Z,97190.22
2022-12-29T19:30:49.548Z,97197.38
2022-12-29T19:33:19.350Z,97208.00
2022-12-29T19:35:46.763Z,97204.66
2022-12-29T19:38:14.303Z,97205.03
2022-12-29T19:40:42.837Z,97199.75
2022-12-29T19:43:13.935Z,97194.06
2022-12-29T19:45:42.039Z,97189.69
2022-12-29T19:48:12.578Z,97188.22
2022-12-29T19:50:39.949Z,97190.97
2022-12-29T19:53:07.236Z,97190.53
2022-12-29T19:55:34.535Z,97187.75
2022-12-29T19:58:01.724Z,97185.84
2022-12-29T20:00:29.015Z,97190.78
2022-12-29T20:02:56.301Z,97167.09
2022-12-29T20:05:23.822Z,97135.25
2022-12-29T20:07:51.141Z,97172.72
2022-12-29T20:10:18.465Z,97150.81
2022-12-29T20:12:45.726Z,97146.28
2022-12-29T20:15:15.189Z,97162.84
2022-12-29T20:20:29.871Z,97176.66
2022-12-29T20:22:57.912Z,97177.34
2022-12-29T20:28:12.526Z,97172.88
2022-12-29T20:30:39.758Z,97175.88
2022-12-29T20:33:08.853Z,97173.44
2022-12-29T20:35:37.621Z,97167.44
2022-12-29T20:38:05.124Z,97181.66
2022-12-29T20:40:32.365Z,97185.25
2022-12-29T20:42:59.555Z,97180.53
2022-12-29T20:45:26.893Z,97187.28
2022-12-29T20:47:54.915Z,97197.81
2022-12-29T20:50:22.152Z,97193.88
2022-12-29T20:52:49.462Z,97198.03
2022-12-29T20:55:16.665Z,97203.13
2022-12-29T21:00:34.145Z,97193.53
2022-12-29T21:03:01.692Z,97195.47
2022-12-29T21:05:29.157Z,97211.66
2022-12-29T21:07:56.538Z,97212.44
2022-12-29T21:10:23.755Z,97214.41
2022-12-29T21:12:51.044Z,97209.88
2022-12-29T21:15:18.395Z,97224.97
2022-12-29T21:17:45.726Z,97226.53
2022-12-29T21:20:20.537Z,97223.63
2022-12-29T21:22:48.704Z,97231.75
2022-12-29T21:25:16.015Z,97230.06
2022-12-29T21:27:44.363Z,97235.53
2022-12-29T21:30:12.493Z,97237.22
2022-12-29T21:32:40.511Z,97248.06
2022-12-29T21:35:08.509Z,97259.75
2022-12-29T21:37:36.169Z,97258.22
2022-12-29T21:40:04.728Z,97261.31
2022-12-29T21:42:32.134Z,97262.56
2022-12-29T21:45:20.850Z,97255.84
2022-12-29T21:48:07.564Z,97254.00
2022-12-29T21:50:57.607Z,97256.50
2022-12-29T21:53:37.951Z,97263.50
2022-12-29T21:56:13.423Z,97260.69
2022-12-29T21:59:00.564Z,97270.13
2022-12-29T22:01:47.222Z,97262.19
2022-12-29T22:04:34.587Z,97271.56
2022-12-29T22:07:21.305Z,97283.38
2022-12-29T22:10:06.884Z,97281.53
2022-12-29T22:12:53.134Z,97300.06
2022-12-29T22:15:20.557Z,97295.84
2022-12-29T22:17:52.393Z,97303.78
2022-12-29T22:20:20.631Z,97306.69
2022-12-29T22:22:47.837Z,97303.31
2022-12-29T22:25:15.346Z,97301.69
2022-12-29T22:27:42.973Z,97295.63
2022-12-29T22:30:10.535Z,97300.34
2022-12-29T22:32:37.690Z,97302.50
2022-12-29T22:35:08.021Z,97306.13
2022-12-29T22:37:36.604Z,97305.09
2022-12-29T22:40:05.464Z,97302.25
2022-12-29T22:42:33.250Z,97298.75
2022-12-29T22:45:00.389Z,97300.47
2022-12-29T22:47:27.735Z,97311.25
2022-12-29T22:49:54.905Z,97317.59
2022-12-29T22:52:22.672Z,97302.69
2022-12-29T22:54:49.917Z,97306.06
2022-12-29T22:57:17.193Z,97308.50
2022-12-29T22:59:44.595Z,97309.97
2022-12-29T23:02:11.979Z,97312.22
2022-12-29T23:07:26.460Z,97318.13
2022-12-29T23:09:53.633Z,97319.75
2022-12-29T23:12:20.940Z,97335.66
2022-12-29T23:14:48.078Z,97324.88
2022-12-29T23:17:15.360Z,97326.28
2022-12-29T23:19:42.655Z,97330.53
2022-12-29T23:22:09.961Z,97328.94
2022-12-29T23:24:37.976Z,97333.00
2022-12-29T23:27:05.281Z,97319.50
2022-12-29T23:29:32.556Z,97317.84
2022-12-29T23:31:59.804Z,97311.97
2022-12-29T23:34:27.124Z,97312.56
2022-12-29T23:36:54.405Z,97319.69
2022-12-29T23:39:25.960Z,97327.19
2022-12-29T23:41:53.218Z,97331.44
2022-12-29T23:44:20.465Z,97328.78
2022-12-29T23:46:47.891Z,97325.34
2022-12-29T23:49:15.190Z,97331.44
2022-12-29T23:51:42.617Z,97335.09
2022-12-29T23:54:09.866Z,97327.97
2022-12-29T23:56:37.311Z,97337.75
2022-12-29T23:59:05.226Z,97345.31
